<?xml version="1.0" encoding="UTF-8" standalone="no" ?>
<gpx xmlns="http://www.topografix.com/GPX/1/1" creator="MapSource 6.11.6" version="1.1" xmlns:xsi="http://www.w3.org/2001/XMLSchema-instance" xsi:schemaLocation="http://www.topografix.com/GPX/1/1 http://www.topografix.com/GPX/1/1/gpx.xsd">

  <metadata>
    <link href="http://www.garmin.com">
      <text>Garmin International</text>
    </link>
    <time>2009-10-23T18:03:54Z</time>
    <bounds maxlat="50.613035" maxlon="6.288293" minlat="50.596912" minlon="6.267787"/>
  </metadata>

  <trk>
    <name>Westwall-Rundwanderweg</name>
    <link href="http://www.gpsies.com/map.do?fileId=telfvoaujnjkgjtf"/>
    <extensions>
      <gpxx:TrackExtension xmlns:gpxx="http://www.garmin.com/xmlschemas/GpxExtensions/v3" xmlns:xsi="http://www.w3.org/2001/XMLSchema-instance" xsi:schemaLocation="http://www.garmin.com/xmlschemas/GpxExtensions/v3 http://www.garmin.com/xmlschemas/GpxExtensions/v3/GpxExtensionsv3.xsd">
        <gpxx:DisplayColor>White</gpxx:DisplayColor>
      </gpxx:TrackExtension>
    </extensions>
    <trkseg>
      <trkpt lat="50.607989" lon="6.288293">
        <ele>534.149650</ele>
        <time>2009-10-23T19:05:52Z</time>
      </trkpt>
      <trkpt lat="50.607985" lon="6.288244">
        <ele>534.630370</ele>
        <time>2009-10-23T19:05:54Z</time>
      </trkpt>
      <trkpt lat="50.607975" lon="6.288216">
        <ele>534.149650</ele>
        <time>2009-10-23T19:05:55Z</time>
      </trkpt>
      <trkpt lat="50.607906" lon="6.287994">
        <ele>535.110960</ele>
        <time>2009-10-23T19:06:01Z</time>
      </trkpt>
      <trkpt lat="50.607882" lon="6.287894">
        <ele>534.630370</ele>
        <time>2009-10-23T19:06:04Z</time>
      </trkpt>
      <trkpt lat="50.607865" lon="6.287827">
        <ele>534.630370</ele>
        <time>2009-10-23T19:06:05Z</time>
      </trkpt>
      <trkpt lat="50.607782" lon="6.287555">
        <ele>533.668940</ele>
        <time>2009-10-23T19:06:13Z</time>
      </trkpt>
      <trkpt lat="50.607771" lon="6.287531">
        <ele>533.188350</ele>
        <time>2009-10-23T19:06:14Z</time>
      </trkpt>
      <trkpt lat="50.607696" lon="6.287303">
        <ele>533.188350</ele>
        <time>2009-10-23T19:06:20Z</time>
      </trkpt>
      <trkpt lat="50.607668" lon="6.287161">
        <ele>531.265740</ele>
        <time>2009-10-23T19:06:24Z</time>
      </trkpt>
      <trkpt lat="50.607655" lon="6.287069">
        <ele>528.381830</ele>
        <time>2009-10-23T19:06:26Z</time>
      </trkpt>
      <trkpt lat="50.607634" lon="6.287018">
        <ele>527.901000</ele>
        <time>2009-10-23T19:06:28Z</time>
      </trkpt>
      <trkpt lat="50.607555" lon="6.286821">
        <ele>530.304440</ele>
        <time>2009-10-23T19:06:34Z</time>
      </trkpt>
      <trkpt lat="50.607521" lon="6.286665">
        <ele>531.265740</ele>
        <time>2009-10-23T19:06:38Z</time>
      </trkpt>
      <trkpt lat="50.607476" lon="6.286485">
        <ele>531.265740</ele>
        <time>2009-10-23T19:06:43Z</time>
      </trkpt>
      <trkpt lat="50.607435" lon="6.286394">
        <ele>530.785150</ele>
        <time>2009-10-23T19:06:46Z</time>
      </trkpt>
      <trkpt lat="50.607373" lon="6.286190">
        <ele>530.785150</ele>
        <time>2009-10-23T19:06:52Z</time>
      </trkpt>
      <trkpt lat="50.607315" lon="6.285995">
        <ele>528.862540</ele>
        <time>2009-10-23T19:06:57Z</time>
      </trkpt>
      <trkpt lat="50.607234" lon="6.285753">
        <ele>524.536490</ele>
        <time>2009-10-23T19:07:04Z</time>
      </trkpt>
      <trkpt lat="50.607179" lon="6.285469">
        <ele>524.055780</ele>
        <time>2009-10-23T19:07:12Z</time>
      </trkpt>
      <trkpt lat="50.607136" lon="6.285200">
        <ele>525.978390</ele>
        <time>2009-10-23T19:07:19Z</time>
      </trkpt>
      <trkpt lat="50.607118" lon="6.285139">
        <ele>525.978390</ele>
        <time>2009-10-23T19:07:20Z</time>
      </trkpt>
      <trkpt lat="50.607077" lon="6.284873">
        <ele>529.823730</ele>
        <time>2009-10-23T19:07:27Z</time>
      </trkpt>
      <trkpt lat="50.607045" lon="6.284642">
        <ele>531.265740</ele>
        <time>2009-10-23T19:07:33Z</time>
      </trkpt>
      <trkpt lat="50.607004" lon="6.284430">
        <ele>532.227050</ele>
        <time>2009-10-23T19:07:39Z</time>
      </trkpt>
      <trkpt lat="50.606953" lon="6.284378">
        <ele>534.149650</ele>
        <time>2009-10-23T19:07:41Z</time>
      </trkpt>
      <trkpt lat="50.606970" lon="6.284470">
        <ele>533.668940</ele>
        <time>2009-10-23T19:07:44Z</time>
      </trkpt>
      <trkpt lat="50.606913" lon="6.284524">
        <ele>533.188350</ele>
        <time>2009-10-23T19:07:46Z</time>
      </trkpt>
      <trkpt lat="50.606993" lon="6.284473">
        <ele>532.707760</ele>
        <time>2009-10-23T19:07:50Z</time>
      </trkpt>
      <trkpt lat="50.606980" lon="6.284212">
        <ele>532.227050</ele>
        <time>2009-10-23T19:07:57Z</time>
      </trkpt>
      <trkpt lat="50.607008" lon="6.284257">
        <ele>532.227050</ele>
        <time>2009-10-23T19:07:58Z</time>
      </trkpt>
      <trkpt lat="50.606958" lon="6.284126">
        <ele>531.746330</ele>
        <time>2009-10-23T19:08:02Z</time>
      </trkpt>
      <trkpt lat="50.606949" lon="6.284069">
        <ele>531.265740</ele>
        <time>2009-10-23T19:08:04Z</time>
      </trkpt>
      <trkpt lat="50.606929" lon="6.283851">
        <ele>531.265740</ele>
        <time>2009-10-23T19:08:09Z</time>
      </trkpt>
      <trkpt lat="50.606900" lon="6.283672">
        <ele>530.785150</ele>
        <time>2009-10-23T19:08:14Z</time>
      </trkpt>
      <trkpt lat="50.606854" lon="6.283463">
        <ele>529.823730</ele>
        <time>2009-10-23T19:08:19Z</time>
      </trkpt>
      <trkpt lat="50.606822" lon="6.283231">
        <ele>529.823730</ele>
        <time>2009-10-23T19:08:25Z</time>
      </trkpt>
      <trkpt lat="50.606795" lon="6.282977">
        <ele>532.707760</ele>
        <time>2009-10-23T19:08:32Z</time>
      </trkpt>
      <trkpt lat="50.606781" lon="6.282882">
        <ele>533.188350</ele>
        <time>2009-10-23T19:08:34Z</time>
      </trkpt>
      <trkpt lat="50.606739" lon="6.282666">
        <ele>532.707760</ele>
        <time>2009-10-23T19:08:40Z</time>
      </trkpt>
      <trkpt lat="50.606712" lon="6.282454">
        <ele>532.227050</ele>
        <time>2009-10-23T19:08:46Z</time>
      </trkpt>
      <trkpt lat="50.606681" lon="6.282222">
        <ele>531.265740</ele>
        <time>2009-10-23T19:08:52Z</time>
      </trkpt>
      <trkpt lat="50.606670" lon="6.282145">
        <ele>531.265740</ele>
        <time>2009-10-23T19:08:54Z</time>
      </trkpt>
      <trkpt lat="50.606617" lon="6.281867">
        <ele>530.304440</ele>
        <time>2009-10-23T19:09:01Z</time>
      </trkpt>
      <trkpt lat="50.606594" lon="6.281711">
        <ele>531.746330</ele>
        <time>2009-10-23T19:09:05Z</time>
      </trkpt>
      <trkpt lat="50.606530" lon="6.281579">
        <ele>530.785150</ele>
        <time>2009-10-23T19:09:09Z</time>
      </trkpt>
      <trkpt lat="50.606439" lon="6.281553">
        <ele>530.785150</ele>
        <time>2009-10-23T19:09:13Z</time>
      </trkpt>
      <trkpt lat="50.606209" lon="6.281598">
        <ele>530.785150</ele>
        <time>2009-10-23T19:09:22Z</time>
      </trkpt>
      <trkpt lat="50.606032" lon="6.281658">
        <ele>534.149650</ele>
        <time>2009-10-23T19:09:30Z</time>
      </trkpt>
      <trkpt lat="50.605923" lon="6.281769">
        <ele>537.033690</ele>
        <time>2009-10-23T19:09:35Z</time>
      </trkpt>
      <trkpt lat="50.605567" lon="6.282007">
        <ele>536.553100</ele>
        <time>2009-10-23T19:09:50Z</time>
      </trkpt>
      <trkpt lat="50.605577" lon="6.281916">
        <ele>535.110960</ele>
        <time>2009-10-23T19:09:53Z</time>
      </trkpt>
      <trkpt lat="50.605531" lon="6.281806">
        <ele>535.110960</ele>
        <time>2009-10-23T19:09:56Z</time>
      </trkpt>
      <trkpt lat="50.605484" lon="6.281673">
        <ele>531.265740</ele>
        <time>2009-10-23T19:10:00Z</time>
      </trkpt>
      <trkpt lat="50.605511" lon="6.281756">
        <ele>532.227050</ele>
        <time>2009-10-23T19:10:02Z</time>
      </trkpt>
      <trkpt lat="50.605529" lon="6.281824">
        <ele>533.668940</ele>
        <time>2009-10-23T19:10:04Z</time>
      </trkpt>
      <trkpt lat="50.605537" lon="6.281996">
        <ele>534.149650</ele>
        <time>2009-10-23T19:10:08Z</time>
      </trkpt>
      <trkpt lat="50.605495" lon="6.282002">
        <ele>534.630370</ele>
        <time>2009-10-23T19:10:10Z</time>
      </trkpt>
      <trkpt lat="50.605434" lon="6.282045">
        <ele>536.072380</ele>
        <time>2009-10-23T19:10:13Z</time>
      </trkpt>
      <trkpt lat="50.605299" lon="6.282122">
        <ele>535.591550</ele>
        <time>2009-10-23T19:10:19Z</time>
      </trkpt>
      <trkpt lat="50.605200" lon="6.282191">
        <ele>536.072380</ele>
        <time>2009-10-23T19:10:23Z</time>
      </trkpt>
      <trkpt lat="50.605126" lon="6.282257">
        <ele>536.072380</ele>
        <time>2009-10-23T19:10:26Z</time>
      </trkpt>
      <trkpt lat="50.604951" lon="6.282358">
        <ele>535.591550</ele>
        <time>2009-10-23T19:10:34Z</time>
      </trkpt>
      <trkpt lat="50.604843" lon="6.282453">
        <ele>537.033690</ele>
        <time>2009-10-23T19:10:39Z</time>
      </trkpt>
      <trkpt lat="50.604826" lon="6.282456">
        <ele>536.553100</ele>
        <time>2009-10-23T19:10:39Z</time>
      </trkpt>
      <trkpt lat="50.604719" lon="6.282532">
        <ele>536.553100</ele>
        <time>2009-10-23T19:10:44Z</time>
      </trkpt>
      <trkpt lat="50.604582" lon="6.282681">
        <ele>537.514280</ele>
        <time>2009-10-23T19:10:51Z</time>
      </trkpt>
      <trkpt lat="50.604420" lon="6.282690">
        <ele>537.994990</ele>
        <time>2009-10-23T19:10:57Z</time>
      </trkpt>
      <trkpt lat="50.604311" lon="6.282681">
        <ele>537.994990</ele>
        <time>2009-10-23T19:11:02Z</time>
      </trkpt>
      <trkpt lat="50.604278" lon="6.282659">
        <ele>537.994990</ele>
        <time>2009-10-23T19:11:03Z</time>
      </trkpt>
      <trkpt lat="50.604163" lon="6.282607">
        <ele>537.994990</ele>
        <time>2009-10-23T19:11:08Z</time>
      </trkpt>
      <trkpt lat="50.604076" lon="6.282594">
        <ele>537.994990</ele>
        <time>2009-10-23T19:11:11Z</time>
      </trkpt>
      <trkpt lat="50.603947" lon="6.282592">
        <ele>537.514280</ele>
        <time>2009-10-23T19:11:17Z</time>
      </trkpt>
      <trkpt lat="50.603904" lon="6.282567">
        <ele>537.514280</ele>
        <time>2009-10-23T19:11:18Z</time>
      </trkpt>
      <trkpt lat="50.603846" lon="6.282533">
        <ele>538.475700</ele>
        <time>2009-10-23T19:11:21Z</time>
      </trkpt>
      <trkpt lat="50.603768" lon="6.282482">
        <ele>537.514280</ele>
        <time>2009-10-23T19:11:24Z</time>
      </trkpt>
      <trkpt lat="50.603740" lon="6.282461">
        <ele>537.994990</ele>
        <time>2009-10-23T19:11:25Z</time>
      </trkpt>
      <trkpt lat="50.603664" lon="6.282445">
        <ele>537.994990</ele>
        <time>2009-10-23T19:11:29Z</time>
      </trkpt>
      <trkpt lat="50.603607" lon="6.282444">
        <ele>537.514280</ele>
        <time>2009-10-23T19:11:31Z</time>
      </trkpt>
      <trkpt lat="50.603479" lon="6.282431">
        <ele>537.994990</ele>
        <time>2009-10-23T19:11:36Z</time>
      </trkpt>
      <trkpt lat="50.603366" lon="6.282380">
        <ele>538.475700</ele>
        <time>2009-10-23T19:11:41Z</time>
      </trkpt>
      <trkpt lat="50.603184" lon="6.282320">
        <ele>537.033690</ele>
        <time>2009-10-23T19:11:48Z</time>
      </trkpt>
      <trkpt lat="50.603062" lon="6.282069">
        <ele>537.514280</ele>
        <time>2009-10-23T19:11:56Z</time>
      </trkpt>
      <trkpt lat="50.602911" lon="6.281926">
        <ele>536.553100</ele>
        <time>2009-10-23T19:12:03Z</time>
      </trkpt>
      <trkpt lat="50.602823" lon="6.281756">
        <ele>535.110960</ele>
        <time>2009-10-23T19:12:09Z</time>
      </trkpt>
      <trkpt lat="50.602760" lon="6.281694">
        <ele>535.591550</ele>
        <time>2009-10-23T19:12:12Z</time>
      </trkpt>
      <trkpt lat="50.602676" lon="6.281688">
        <ele>534.630370</ele>
        <time>2009-10-23T19:12:15Z</time>
      </trkpt>
      <trkpt lat="50.602647" lon="6.281688">
        <ele>534.630370</ele>
        <time>2009-10-23T19:12:16Z</time>
      </trkpt>
      <trkpt lat="50.602511" lon="6.281687">
        <ele>535.591550</ele>
        <time>2009-10-23T19:12:22Z</time>
      </trkpt>
      <trkpt lat="50.602383" lon="6.281699">
        <ele>536.553100</ele>
        <time>2009-10-23T19:12:27Z</time>
      </trkpt>
      <trkpt lat="50.602289" lon="6.281669">
        <ele>535.110960</ele>
        <time>2009-10-23T19:12:31Z</time>
      </trkpt>
      <trkpt lat="50.602214" lon="6.281669">
        <ele>536.072380</ele>
        <time>2009-10-23T19:12:34Z</time>
      </trkpt>
      <trkpt lat="50.602091" lon="6.281615">
        <ele>535.591550</ele>
        <time>2009-10-23T19:12:39Z</time>
      </trkpt>
      <trkpt lat="50.601983" lon="6.281643">
        <ele>534.149650</ele>
        <time>2009-10-23T19:12:43Z</time>
      </trkpt>
      <trkpt lat="50.601885" lon="6.281647">
        <ele>532.227050</ele>
        <time>2009-10-23T19:12:47Z</time>
      </trkpt>
      <trkpt lat="50.601785" lon="6.281639">
        <ele>532.227050</ele>
        <time>2009-10-23T19:12:51Z</time>
      </trkpt>
      <trkpt lat="50.601739" lon="6.281615">
        <ele>530.304440</ele>
        <time>2009-10-23T19:12:53Z</time>
      </trkpt>
      <trkpt lat="50.601640" lon="6.281593">
        <ele>529.823730</ele>
        <time>2009-10-23T19:12:57Z</time>
      </trkpt>
      <trkpt lat="50.601552" lon="6.281613">
        <ele>529.823730</ele>
        <time>2009-10-23T19:13:01Z</time>
      </trkpt>
      <trkpt lat="50.601514" lon="6.281674">
        <ele>528.862540</ele>
        <time>2009-10-23T19:13:03Z</time>
      </trkpt>
      <trkpt lat="50.601394" lon="6.281863">
        <ele>530.304440</ele>
        <time>2009-10-23T19:13:10Z</time>
      </trkpt>
      <trkpt lat="50.601278" lon="6.282074">
        <ele>533.188350</ele>
        <time>2009-10-23T19:13:17Z</time>
      </trkpt>
      <trkpt lat="50.601182" lon="6.282238">
        <ele>533.188350</ele>
        <time>2009-10-23T19:13:22Z</time>
      </trkpt>
      <trkpt lat="50.601068" lon="6.282438">
        <ele>535.110960</ele>
        <time>2009-10-23T19:13:29Z</time>
      </trkpt>
      <trkpt lat="50.600961" lon="6.282628">
        <ele>536.553100</ele>
        <time>2009-10-23T19:13:36Z</time>
      </trkpt>
      <trkpt lat="50.600949" lon="6.282674">
        <ele>536.072380</ele>
        <time>2009-10-23T19:13:37Z</time>
      </trkpt>
      <trkpt lat="50.600885" lon="6.282790">
        <ele>535.110960</ele>
        <time>2009-10-23T19:13:41Z</time>
      </trkpt>
      <trkpt lat="50.600759" lon="6.282987">
        <ele>534.149650</ele>
        <time>2009-10-23T19:13:48Z</time>
      </trkpt>
      <trkpt lat="50.600598" lon="6.282990">
        <ele>532.227050</ele>
        <time>2009-10-23T19:13:54Z</time>
      </trkpt>
      <trkpt lat="50.600451" lon="6.282990">
        <ele>532.707760</ele>
        <time>2009-10-23T19:14:00Z</time>
      </trkpt>
      <trkpt lat="50.600360" lon="6.282987">
        <ele>533.188350</ele>
        <time>2009-10-23T19:14:04Z</time>
      </trkpt>
      <trkpt lat="50.600354" lon="6.282994">
        <ele>533.188350</ele>
        <time>2009-10-23T19:14:04Z</time>
      </trkpt>
      <trkpt lat="50.600276" lon="6.282984">
        <ele>533.668940</ele>
        <time>2009-10-23T19:14:07Z</time>
      </trkpt>
      <trkpt lat="50.600132" lon="6.282959">
        <ele>536.072380</ele>
        <time>2009-10-23T19:14:13Z</time>
      </trkpt>
      <trkpt lat="50.599813" lon="6.282922">
        <ele>536.553100</ele>
        <time>2009-10-23T19:14:26Z</time>
      </trkpt>
      <trkpt lat="50.599651" lon="6.282893">
        <ele>536.553100</ele>
        <time>2009-10-23T19:14:32Z</time>
      </trkpt>
      <trkpt lat="50.599552" lon="6.282882">
        <ele>537.033690</ele>
        <time>2009-10-23T19:14:36Z</time>
      </trkpt>
      <trkpt lat="50.599314" lon="6.282862">
        <ele>538.475700</ele>
        <time>2009-10-23T19:14:46Z</time>
      </trkpt>
      <trkpt lat="50.599210" lon="6.282873">
        <ele>537.033690</ele>
        <time>2009-10-23T19:14:50Z</time>
      </trkpt>
      <trkpt lat="50.599019" lon="6.282842">
        <ele>537.033690</ele>
        <time>2009-10-23T19:14:58Z</time>
      </trkpt>
      <trkpt lat="50.598837" lon="6.282834">
        <ele>536.553100</ele>
        <time>2009-10-23T19:15:05Z</time>
      </trkpt>
      <trkpt lat="50.598711" lon="6.282829">
        <ele>536.553100</ele>
        <time>2009-10-23T19:15:10Z</time>
      </trkpt>
      <trkpt lat="50.598508" lon="6.282813">
        <ele>538.475700</ele>
        <time>2009-10-23T19:15:18Z</time>
      </trkpt>
      <trkpt lat="50.598408" lon="6.282840">
        <ele>538.956290</ele>
        <time>2009-10-23T19:15:22Z</time>
      </trkpt>
      <trkpt lat="50.598270" lon="6.282823">
        <ele>538.956290</ele>
        <time>2009-10-23T19:15:28Z</time>
      </trkpt>
      <trkpt lat="50.598081" lon="6.282761">
        <ele>539.436890</ele>
        <time>2009-10-23T19:15:36Z</time>
      </trkpt>
      <trkpt lat="50.597882" lon="6.282775">
        <ele>539.917600</ele>
        <time>2009-10-23T19:15:44Z</time>
      </trkpt>
      <trkpt lat="50.597741" lon="6.282745">
        <ele>542.801510</ele>
        <time>2009-10-23T19:15:49Z</time>
      </trkpt>
      <trkpt lat="50.597593" lon="6.282755">
        <ele>542.801510</ele>
        <time>2009-10-23T19:15:55Z</time>
      </trkpt>
      <trkpt lat="50.597482" lon="6.282702">
        <ele>542.801510</ele>
        <time>2009-10-23T19:16:00Z</time>
      </trkpt>
      <trkpt lat="50.597343" lon="6.282561">
        <ele>543.282100</ele>
        <time>2009-10-23T19:16:06Z</time>
      </trkpt>
      <trkpt lat="50.597230" lon="6.282378">
        <ele>544.243650</ele>
        <time>2009-10-23T19:16:13Z</time>
      </trkpt>
      <trkpt lat="50.597048" lon="6.282167">
        <ele>547.127440</ele>
        <time>2009-10-23T19:16:22Z</time>
      </trkpt>
      <trkpt lat="50.596966" lon="6.282007">
        <ele>548.569330</ele>
        <time>2009-10-23T19:16:27Z</time>
      </trkpt>
      <trkpt lat="50.596971" lon="6.281914">
        <ele>548.088860</ele>
        <time>2009-10-23T19:16:30Z</time>
      </trkpt>
      <trkpt lat="50.596951" lon="6.281932">
        <ele>546.646850</ele>
        <time>2009-10-23T19:16:31Z</time>
      </trkpt>
      <trkpt lat="50.596953" lon="6.281904">
        <ele>545.685540</ele>
        <time>2009-10-23T19:16:31Z</time>
      </trkpt>
      <trkpt lat="50.596912" lon="6.281926">
        <ele>544.243650</ele>
        <time>2009-10-23T19:16:33Z</time>
      </trkpt>
      <trkpt lat="50.596972" lon="6.281903">
        <ele>544.724240</ele>
        <time>2009-10-23T19:16:35Z</time>
      </trkpt>
      <trkpt lat="50.597031" lon="6.281880">
        <ele>543.762810</ele>
        <time>2009-10-23T19:16:38Z</time>
      </trkpt>
      <trkpt lat="50.597073" lon="6.281876">
        <ele>542.801510</ele>
        <time>2009-10-23T19:16:40Z</time>
      </trkpt>
      <trkpt lat="50.597196" lon="6.281825">
        <ele>542.801510</ele>
        <time>2009-10-23T19:16:45Z</time>
      </trkpt>
      <trkpt lat="50.597326" lon="6.281758">
        <ele>544.243650</ele>
        <time>2009-10-23T19:16:50Z</time>
      </trkpt>
      <trkpt lat="50.597451" lon="6.281687">
        <ele>544.243650</ele>
        <time>2009-10-23T19:16:55Z</time>
      </trkpt>
      <trkpt lat="50.597603" lon="6.281643">
        <ele>541.840210</ele>
        <time>2009-10-23T19:17:02Z</time>
      </trkpt>
      <trkpt lat="50.597615" lon="6.281632">
        <ele>542.320920</ele>
        <time>2009-10-23T19:17:02Z</time>
      </trkpt>
      <trkpt lat="50.597727" lon="6.281580">
        <ele>542.320920</ele>
        <time>2009-10-23T19:17:07Z</time>
      </trkpt>
      <trkpt lat="50.597868" lon="6.281512">
        <ele>536.553100</ele>
        <time>2009-10-23T19:17:13Z</time>
      </trkpt>
      <trkpt lat="50.597957" lon="6.281410">
        <ele>533.668940</ele>
        <time>2009-10-23T19:17:17Z</time>
      </trkpt>
      <trkpt lat="50.598157" lon="6.281303">
        <ele>529.343140</ele>
        <time>2009-10-23T19:17:26Z</time>
      </trkpt>
      <trkpt lat="50.598271" lon="6.281182">
        <ele>525.978390</ele>
        <time>2009-10-23T19:17:31Z</time>
      </trkpt>
      <trkpt lat="50.598454" lon="6.280895">
        <ele>522.613890</ele>
        <time>2009-10-23T19:17:41Z</time>
      </trkpt>
      <trkpt lat="50.598461" lon="6.280880">
        <ele>522.613890</ele>
        <time>2009-10-23T19:17:42Z</time>
      </trkpt>
      <trkpt lat="50.598486" lon="6.280880">
        <ele>521.652580</ele>
        <time>2009-10-23T19:17:43Z</time>
      </trkpt>
      <trkpt lat="50.598542" lon="6.280740">
        <ele>521.652580</ele>
        <time>2009-10-23T19:17:47Z</time>
      </trkpt>
      <trkpt lat="50.598582" lon="6.280670">
        <ele>521.652580</ele>
        <time>2009-10-23T19:17:50Z</time>
      </trkpt>
      <trkpt lat="50.598616" lon="6.280645">
        <ele>521.171990</ele>
        <time>2009-10-23T19:17:51Z</time>
      </trkpt>
      <trkpt lat="50.598684" lon="6.280534">
        <ele>521.652580</ele>
        <time>2009-10-23T19:17:55Z</time>
      </trkpt>
      <trkpt lat="50.598710" lon="6.280503">
        <ele>522.613890</ele>
        <time>2009-10-23T19:17:56Z</time>
      </trkpt>
      <trkpt lat="50.598832" lon="6.280324">
        <ele>527.901000</ele>
        <time>2009-10-23T19:18:03Z</time>
      </trkpt>
      <trkpt lat="50.598966" lon="6.280158">
        <ele>532.707760</ele>
        <time>2009-10-23T19:18:10Z</time>
      </trkpt>
      <trkpt lat="50.599098" lon="6.279972">
        <ele>532.707760</ele>
        <time>2009-10-23T19:18:17Z</time>
      </trkpt>
      <trkpt lat="50.599204" lon="6.279824">
        <ele>531.746330</ele>
        <time>2009-10-23T19:18:23Z</time>
      </trkpt>
      <trkpt lat="50.599220" lon="6.279809">
        <ele>531.746330</ele>
        <time>2009-10-23T19:18:23Z</time>
      </trkpt>
      <trkpt lat="50.599262" lon="6.279750">
        <ele>533.188350</ele>
        <time>2009-10-23T19:18:26Z</time>
      </trkpt>
      <trkpt lat="50.599395" lon="6.279596">
        <ele>535.110960</ele>
        <time>2009-10-23T19:18:32Z</time>
      </trkpt>
      <trkpt lat="50.599395" lon="6.279581">
        <ele>534.630370</ele>
        <time>2009-10-23T19:18:33Z</time>
      </trkpt>
      <trkpt lat="50.599546" lon="6.279327">
        <ele>531.265740</ele>
        <time>2009-10-23T19:18:41Z</time>
      </trkpt>
      <trkpt lat="50.599590" lon="6.279288">
        <ele>531.746330</ele>
        <time>2009-10-23T19:18:43Z</time>
      </trkpt>
      <trkpt lat="50.599684" lon="6.279236">
        <ele>529.343140</ele>
        <time>2009-10-23T19:18:47Z</time>
      </trkpt>
      <trkpt lat="50.599833" lon="6.279086">
        <ele>529.343140</ele>
        <time>2009-10-23T19:18:54Z</time>
      </trkpt>
      <trkpt lat="50.599869" lon="6.279067">
        <ele>529.823730</ele>
        <time>2009-10-23T19:18:56Z</time>
      </trkpt>
      <trkpt lat="50.600040" lon="6.278929">
        <ele>535.110960</ele>
        <time>2009-10-23T19:19:04Z</time>
      </trkpt>
      <trkpt lat="50.600192" lon="6.278856">
        <ele>532.707760</ele>
        <time>2009-10-23T19:19:10Z</time>
      </trkpt>
      <trkpt lat="50.600286" lon="6.278772">
        <ele>532.227050</ele>
        <time>2009-10-23T19:19:14Z</time>
      </trkpt>
      <trkpt lat="50.600305" lon="6.278725">
        <ele>532.227050</ele>
        <time>2009-10-23T19:19:16Z</time>
      </trkpt>
      <trkpt lat="50.600323" lon="6.278699">
        <ele>532.227050</ele>
        <time>2009-10-23T19:19:17Z</time>
      </trkpt>
      <trkpt lat="50.600387" lon="6.278579">
        <ele>531.265740</ele>
        <time>2009-10-23T19:19:21Z</time>
      </trkpt>
      <trkpt lat="50.600444" lon="6.278486">
        <ele>531.265740</ele>
        <time>2009-10-23T19:19:24Z</time>
      </trkpt>
      <trkpt lat="50.600556" lon="6.278318">
        <ele>529.823730</ele>
        <time>2009-10-23T19:19:30Z</time>
      </trkpt>
      <trkpt lat="50.600564" lon="6.278293">
        <ele>530.304440</ele>
        <time>2009-10-23T19:19:31Z</time>
      </trkpt>
      <trkpt lat="50.600690" lon="6.278081">
        <ele>529.343140</ele>
        <time>2009-10-23T19:19:38Z</time>
      </trkpt>
      <trkpt lat="50.600793" lon="6.277855">
        <ele>528.381830</ele>
        <time>2009-10-23T19:19:45Z</time>
      </trkpt>
      <trkpt lat="50.600931" lon="6.277657">
        <ele>528.862540</ele>
        <time>2009-10-23T19:19:53Z</time>
      </trkpt>
      <trkpt lat="50.601045" lon="6.277478">
        <ele>527.901000</ele>
        <time>2009-10-23T19:19:59Z</time>
      </trkpt>
      <trkpt lat="50.601159" lon="6.277322">
        <ele>526.939810</ele>
        <time>2009-10-23T19:20:05Z</time>
      </trkpt>
      <trkpt lat="50.601201" lon="6.277311">
        <ele>528.381830</ele>
        <time>2009-10-23T19:20:07Z</time>
      </trkpt>
      <trkpt lat="50.601225" lon="6.277300">
        <ele>527.901000</ele>
        <time>2009-10-23T19:20:08Z</time>
      </trkpt>
      <trkpt lat="50.601208" lon="6.277254">
        <ele>526.939810</ele>
        <time>2009-10-23T19:20:09Z</time>
      </trkpt>
      <trkpt lat="50.601190" lon="6.277214">
        <ele>526.459100</ele>
        <time>2009-10-23T19:20:11Z</time>
      </trkpt>
      <trkpt lat="50.601181" lon="6.277051">
        <ele>527.420410</ele>
        <time>2009-10-23T19:20:15Z</time>
      </trkpt>
      <trkpt lat="50.601167" lon="6.276963">
        <ele>525.978390</ele>
        <time>2009-10-23T19:20:17Z</time>
      </trkpt>
      <trkpt lat="50.601172" lon="6.276926">
        <ele>525.978390</ele>
        <time>2009-10-23T19:20:18Z</time>
      </trkpt>
      <trkpt lat="50.601175" lon="6.276657">
        <ele>527.901000</ele>
        <time>2009-10-23T19:20:25Z</time>
      </trkpt>
      <trkpt lat="50.601170" lon="6.276413">
        <ele>525.017210</ele>
        <time>2009-10-23T19:20:31Z</time>
      </trkpt>
      <trkpt lat="50.601149" lon="6.276082">
        <ele>524.055780</ele>
        <time>2009-10-23T19:20:40Z</time>
      </trkpt>
      <trkpt lat="50.601116" lon="6.275777">
        <ele>526.939810</ele>
        <time>2009-10-23T19:20:47Z</time>
      </trkpt>
      <trkpt lat="50.601059" lon="6.275504">
        <ele>525.017210</ele>
        <time>2009-10-23T19:20:55Z</time>
      </trkpt>
      <trkpt lat="50.601037" lon="6.275355">
        <ele>523.575190</ele>
        <time>2009-10-23T19:20:59Z</time>
      </trkpt>
      <trkpt lat="50.600982" lon="6.275077">
        <ele>521.652580</ele>
        <time>2009-10-23T19:21:06Z</time>
      </trkpt>
      <trkpt lat="50.600928" lon="6.274849">
        <ele>521.171990</ele>
        <time>2009-10-23T19:21:12Z</time>
      </trkpt>
      <trkpt lat="50.600855" lon="6.274555">
        <ele>520.210570</ele>
        <time>2009-10-23T19:21:20Z</time>
      </trkpt>
      <trkpt lat="50.600806" lon="6.274255">
        <ele>517.326660</ele>
        <time>2009-10-23T19:21:28Z</time>
      </trkpt>
      <trkpt lat="50.600752" lon="6.273971">
        <ele>516.365230</ele>
        <time>2009-10-23T19:21:36Z</time>
      </trkpt>
      <trkpt lat="50.600673" lon="6.273551">
        <ele>515.404050</ele>
        <time>2009-10-23T19:21:47Z</time>
      </trkpt>
      <trkpt lat="50.600624" lon="6.273295">
        <ele>515.404050</ele>
        <time>2009-10-23T19:21:54Z</time>
      </trkpt>
      <trkpt lat="50.600563" lon="6.273095">
        <ele>515.404050</ele>
        <time>2009-10-23T19:21:59Z</time>
      </trkpt>
      <trkpt lat="50.600508" lon="6.272860">
        <ele>515.884640</ele>
        <time>2009-10-23T19:22:06Z</time>
      </trkpt>
      <trkpt lat="50.600477" lon="6.272593">
        <ele>516.845940</ele>
        <time>2009-10-23T19:22:12Z</time>
      </trkpt>
      <trkpt lat="50.600484" lon="6.272442">
        <ele>516.365230</ele>
        <time>2009-10-23T19:22:16Z</time>
      </trkpt>
      <trkpt lat="50.600582" lon="6.272114">
        <ele>518.768550</ele>
        <time>2009-10-23T19:22:25Z</time>
      </trkpt>
      <trkpt lat="50.600711" lon="6.271866">
        <ele>519.729850</ele>
        <time>2009-10-23T19:22:34Z</time>
      </trkpt>
      <trkpt lat="50.600755" lon="6.271815">
        <ele>519.249260</ele>
        <time>2009-10-23T19:22:36Z</time>
      </trkpt>
      <trkpt lat="50.600868" lon="6.271623">
        <ele>519.249260</ele>
        <time>2009-10-23T19:22:42Z</time>
      </trkpt>
      <trkpt lat="50.600953" lon="6.271522">
        <ele>519.729850</ele>
        <time>2009-10-23T19:22:47Z</time>
      </trkpt>
      <trkpt lat="50.600997" lon="6.271462">
        <ele>518.768550</ele>
        <time>2009-10-23T19:22:49Z</time>
      </trkpt>
      <trkpt lat="50.601052" lon="6.271428">
        <ele>517.326660</ele>
        <time>2009-10-23T19:22:51Z</time>
      </trkpt>
      <trkpt lat="50.601113" lon="6.271373">
        <ele>515.884640</ele>
        <time>2009-10-23T19:22:54Z</time>
      </trkpt>
      <trkpt lat="50.601161" lon="6.271302">
        <ele>513.962030</ele>
        <time>2009-10-23T19:22:57Z</time>
      </trkpt>
      <trkpt lat="50.601267" lon="6.271186">
        <ele>513.000730</ele>
        <time>2009-10-23T19:23:02Z</time>
      </trkpt>
      <trkpt lat="50.601358" lon="6.271033">
        <ele>511.558710</ele>
        <time>2009-10-23T19:23:07Z</time>
      </trkpt>
      <trkpt lat="50.601407" lon="6.270944">
        <ele>510.597290</ele>
        <time>2009-10-23T19:23:10Z</time>
      </trkpt>
      <trkpt lat="50.601498" lon="6.270688">
        <ele>510.597290</ele>
        <time>2009-10-23T19:23:18Z</time>
      </trkpt>
      <trkpt lat="50.601559" lon="6.270544">
        <ele>512.039420</ele>
        <time>2009-10-23T19:23:22Z</time>
      </trkpt>
      <trkpt lat="50.601610" lon="6.270336">
        <ele>519.249260</ele>
        <time>2009-10-23T19:23:28Z</time>
      </trkpt>
      <trkpt lat="50.601683" lon="6.270142">
        <ele>519.249260</ele>
        <time>2009-10-23T19:23:34Z</time>
      </trkpt>
      <trkpt lat="50.601703" lon="6.270094">
        <ele>520.210570</ele>
        <time>2009-10-23T19:23:35Z</time>
      </trkpt>
      <trkpt lat="50.601781" lon="6.269817">
        <ele>518.287840</ele>
        <time>2009-10-23T19:23:43Z</time>
      </trkpt>
      <trkpt lat="50.601790" lon="6.269417">
        <ele>517.326660</ele>
        <time>2009-10-23T19:23:53Z</time>
      </trkpt>
      <trkpt lat="50.601804" lon="6.269051">
        <ele>518.287840</ele>
        <time>2009-10-23T19:24:02Z</time>
      </trkpt>
      <trkpt lat="50.601799" lon="6.268929">
        <ele>518.768550</ele>
        <time>2009-10-23T19:24:05Z</time>
      </trkpt>
      <trkpt lat="50.601823" lon="6.268648">
        <ele>516.365230</ele>
        <time>2009-10-23T19:24:13Z</time>
      </trkpt>
      <trkpt lat="50.601898" lon="6.268558">
        <ele>516.365230</ele>
        <time>2009-10-23T19:24:16Z</time>
      </trkpt>
      <trkpt lat="50.601916" lon="6.268497">
        <ele>516.365230</ele>
        <time>2009-10-23T19:24:18Z</time>
      </trkpt>
      <trkpt lat="50.602036" lon="6.268355">
        <ele>515.884640</ele>
        <time>2009-10-23T19:24:24Z</time>
      </trkpt>
      <trkpt lat="50.602170" lon="6.268305">
        <ele>519.729850</ele>
        <time>2009-10-23T19:24:30Z</time>
      </trkpt>
      <trkpt lat="50.602332" lon="6.268206">
        <ele>518.287840</ele>
        <time>2009-10-23T19:24:36Z</time>
      </trkpt>
      <trkpt lat="50.602387" lon="6.268176">
        <ele>519.249260</ele>
        <time>2009-10-23T19:24:39Z</time>
      </trkpt>
      <trkpt lat="50.602579" lon="6.268037">
        <ele>518.768550</ele>
        <time>2009-10-23T19:24:47Z</time>
      </trkpt>
      <trkpt lat="50.602616" lon="6.267981">
        <ele>519.249260</ele>
        <time>2009-10-23T19:24:49Z</time>
      </trkpt>
      <trkpt lat="50.602570" lon="6.267897">
        <ele>519.729850</ele>
        <time>2009-10-23T19:24:52Z</time>
      </trkpt>
      <trkpt lat="50.602565" lon="6.267787">
        <ele>520.210570</ele>
        <time>2009-10-23T19:24:55Z</time>
      </trkpt>
      <trkpt lat="50.602551" lon="6.267859">
        <ele>520.691280</ele>
        <time>2009-10-23T19:24:57Z</time>
      </trkpt>
      <trkpt lat="50.602579" lon="6.267914">
        <ele>521.171990</ele>
        <time>2009-10-23T19:24:59Z</time>
      </trkpt>
      <trkpt lat="50.602631" lon="6.268008">
        <ele>520.691280</ele>
        <time>2009-10-23T19:25:02Z</time>
      </trkpt>
      <trkpt lat="50.602680" lon="6.268175">
        <ele>518.768550</ele>
        <time>2009-10-23T19:25:07Z</time>
      </trkpt>
      <trkpt lat="50.602821" lon="6.268495">
        <ele>517.807250</ele>
        <time>2009-10-23T19:25:16Z</time>
      </trkpt>
      <trkpt lat="50.602939" lon="6.268844">
        <ele>516.365230</ele>
        <time>2009-10-23T19:25:26Z</time>
      </trkpt>
      <trkpt lat="50.603134" lon="6.269168">
        <ele>514.923340</ele>
        <time>2009-10-23T19:25:38Z</time>
      </trkpt>
      <trkpt lat="50.603215" lon="6.269376">
        <ele>514.923340</ele>
        <time>2009-10-23T19:25:44Z</time>
      </trkpt>
      <trkpt lat="50.603361" lon="6.269633">
        <ele>518.287840</ele>
        <time>2009-10-23T19:25:53Z</time>
      </trkpt>
      <trkpt lat="50.603430" lon="6.269775">
        <ele>518.287840</ele>
        <time>2009-10-23T19:25:57Z</time>
      </trkpt>
      <trkpt lat="50.603534" lon="6.269953">
        <ele>521.652580</ele>
        <time>2009-10-23T19:26:03Z</time>
      </trkpt>
      <trkpt lat="50.603656" lon="6.270106">
        <ele>522.613890</ele>
        <time>2009-10-23T19:26:10Z</time>
      </trkpt>
      <trkpt lat="50.603709" lon="6.270222">
        <ele>523.575190</ele>
        <time>2009-10-23T19:26:13Z</time>
      </trkpt>
      <trkpt lat="50.603756" lon="6.270397">
        <ele>521.652580</ele>
        <time>2009-10-23T19:26:18Z</time>
      </trkpt>
      <trkpt lat="50.603752" lon="6.270479">
        <ele>520.691280</ele>
        <time>2009-10-23T19:26:20Z</time>
      </trkpt>
      <trkpt lat="50.603780" lon="6.270529">
        <ele>520.691280</ele>
        <time>2009-10-23T19:26:22Z</time>
      </trkpt>
      <trkpt lat="50.603837" lon="6.270684">
        <ele>519.729850</ele>
        <time>2009-10-23T19:26:26Z</time>
      </trkpt>
      <trkpt lat="50.603858" lon="6.270755">
        <ele>519.249260</ele>
        <time>2009-10-23T19:26:28Z</time>
      </trkpt>
      <trkpt lat="50.603966" lon="6.270958">
        <ele>520.210570</ele>
        <time>2009-10-23T19:26:35Z</time>
      </trkpt>
      <trkpt lat="50.604141" lon="6.271081">
        <ele>520.691280</ele>
        <time>2009-10-23T19:26:43Z</time>
      </trkpt>
      <trkpt lat="50.604263" lon="6.271233">
        <ele>519.729850</ele>
        <time>2009-10-23T19:26:49Z</time>
      </trkpt>
      <trkpt lat="50.604298" lon="6.271263">
        <ele>519.249260</ele>
        <time>2009-10-23T19:26:51Z</time>
      </trkpt>
      <trkpt lat="50.604323" lon="6.271320">
        <ele>518.768550</ele>
        <time>2009-10-23T19:26:52Z</time>
      </trkpt>
      <trkpt lat="50.604392" lon="6.271438">
        <ele>514.923340</ele>
        <time>2009-10-23T19:26:57Z</time>
      </trkpt>
      <trkpt lat="50.604516" lon="6.271638">
        <ele>513.481440</ele>
        <time>2009-10-23T19:27:04Z</time>
      </trkpt>
      <trkpt lat="50.604666" lon="6.271815">
        <ele>511.558710</ele>
        <time>2009-10-23T19:27:11Z</time>
      </trkpt>
      <trkpt lat="50.604828" lon="6.271958">
        <ele>513.000730</ele>
        <time>2009-10-23T19:27:19Z</time>
      </trkpt>
      <trkpt lat="50.604974" lon="6.272077">
        <ele>513.481440</ele>
        <time>2009-10-23T19:27:25Z</time>
      </trkpt>
      <trkpt lat="50.605123" lon="6.272202">
        <ele>513.000730</ele>
        <time>2009-10-23T19:27:32Z</time>
      </trkpt>
      <trkpt lat="50.605270" lon="6.272317">
        <ele>513.000730</ele>
        <time>2009-10-23T19:27:38Z</time>
      </trkpt>
      <trkpt lat="50.605415" lon="6.272435">
        <ele>513.000730</ele>
        <time>2009-10-23T19:27:45Z</time>
      </trkpt>
      <trkpt lat="50.605541" lon="6.272544">
        <ele>511.558710</ele>
        <time>2009-10-23T19:27:51Z</time>
      </trkpt>
      <trkpt lat="50.605697" lon="6.272680">
        <ele>510.597290</ele>
        <time>2009-10-23T19:27:58Z</time>
      </trkpt>
      <trkpt lat="50.605833" lon="6.272796">
        <ele>508.674680</ele>
        <time>2009-10-23T19:28:04Z</time>
      </trkpt>
      <trkpt lat="50.605858" lon="6.272814">
        <ele>509.155390</ele>
        <time>2009-10-23T19:28:05Z</time>
      </trkpt>
      <trkpt lat="50.606021" lon="6.272886">
        <ele>505.790890</ele>
        <time>2009-10-23T19:28:12Z</time>
      </trkpt>
      <trkpt lat="50.606240" lon="6.273047">
        <ele>500.984130</ele>
        <time>2009-10-23T19:28:22Z</time>
      </trkpt>
      <trkpt lat="50.606363" lon="6.273128">
        <ele>499.542230</ele>
        <time>2009-10-23T19:28:27Z</time>
      </trkpt>
      <trkpt lat="50.606549" lon="6.273328">
        <ele>503.387450</ele>
        <time>2009-10-23T19:28:36Z</time>
      </trkpt>
      <trkpt lat="50.606672" lon="6.273460">
        <ele>504.829460</ele>
        <time>2009-10-23T19:28:42Z</time>
      </trkpt>
      <trkpt lat="50.606841" lon="6.273592">
        <ele>504.829460</ele>
        <time>2009-10-23T19:28:50Z</time>
      </trkpt>
      <trkpt lat="50.607006" lon="6.273758">
        <ele>501.945550</ele>
        <time>2009-10-23T19:28:57Z</time>
      </trkpt>
      <trkpt lat="50.607107" lon="6.273954">
        <ele>505.310180</ele>
        <time>2009-10-23T19:29:04Z</time>
      </trkpt>
      <trkpt lat="50.607110" lon="6.274180">
        <ele>510.597290</ele>
        <time>2009-10-23T19:29:09Z</time>
      </trkpt>
      <trkpt lat="50.607124" lon="6.273977">
        <ele>511.078000</ele>
        <time>2009-10-23T19:29:15Z</time>
      </trkpt>
      <trkpt lat="50.607110" lon="6.273893">
        <ele>509.155390</ele>
        <time>2009-10-23T19:29:17Z</time>
      </trkpt>
      <trkpt lat="50.607117" lon="6.273942">
        <ele>508.674680</ele>
        <time>2009-10-23T19:29:18Z</time>
      </trkpt>
      <trkpt lat="50.607119" lon="6.273953">
        <ele>508.674680</ele>
        <time>2009-10-23T19:29:18Z</time>
      </trkpt>
      <trkpt lat="50.607111" lon="6.274078">
        <ele>508.194090</ele>
        <time>2009-10-23T19:29:22Z</time>
      </trkpt>
      <trkpt lat="50.607089" lon="6.274103">
        <ele>509.636100</ele>
        <time>2009-10-23T19:29:23Z</time>
      </trkpt>
      <trkpt lat="50.607091" lon="6.274146">
        <ele>512.520020</ele>
        <time>2009-10-23T19:29:24Z</time>
      </trkpt>
      <trkpt lat="50.607065" lon="6.274304">
        <ele>511.078000</ele>
        <time>2009-10-23T19:29:28Z</time>
      </trkpt>
      <trkpt lat="50.607046" lon="6.274386">
        <ele>512.039420</ele>
        <time>2009-10-23T19:29:30Z</time>
      </trkpt>
      <trkpt lat="50.606985" lon="6.274551">
        <ele>512.520020</ele>
        <time>2009-10-23T19:29:35Z</time>
      </trkpt>
      <trkpt lat="50.606944" lon="6.274690">
        <ele>512.039420</ele>
        <time>2009-10-23T19:29:39Z</time>
      </trkpt>
      <trkpt lat="50.606867" lon="6.274814">
        <ele>513.000730</ele>
        <time>2009-10-23T19:29:43Z</time>
      </trkpt>
      <trkpt lat="50.606761" lon="6.274991">
        <ele>512.039420</ele>
        <time>2009-10-23T19:29:50Z</time>
      </trkpt>
      <trkpt lat="50.606702" lon="6.275090">
        <ele>513.000730</ele>
        <time>2009-10-23T19:29:53Z</time>
      </trkpt>
      <trkpt lat="50.606600" lon="6.275250">
        <ele>516.845940</ele>
        <time>2009-10-23T19:29:59Z</time>
      </trkpt>
      <trkpt lat="50.606494" lon="6.275378">
        <ele>521.171990</ele>
        <time>2009-10-23T19:30:04Z</time>
      </trkpt>
      <trkpt lat="50.606357" lon="6.275566">
        <ele>522.613890</ele>
        <time>2009-10-23T19:30:11Z</time>
      </trkpt>
      <trkpt lat="50.606322" lon="6.275640">
        <ele>521.652580</ele>
        <time>2009-10-23T19:30:14Z</time>
      </trkpt>
      <trkpt lat="50.606310" lon="6.275674">
        <ele>521.652580</ele>
        <time>2009-10-23T19:30:15Z</time>
      </trkpt>
      <trkpt lat="50.606186" lon="6.275873">
        <ele>523.575190</ele>
        <time>2009-10-23T19:30:22Z</time>
      </trkpt>
      <trkpt lat="50.606109" lon="6.276043">
        <ele>523.575190</ele>
        <time>2009-10-23T19:30:27Z</time>
      </trkpt>
      <trkpt lat="50.606012" lon="6.276215">
        <ele>527.901000</ele>
        <time>2009-10-23T19:30:33Z</time>
      </trkpt>
      <trkpt lat="50.605967" lon="6.276372">
        <ele>528.862540</ele>
        <time>2009-10-23T19:30:37Z</time>
      </trkpt>
      <trkpt lat="50.605861" lon="6.276575">
        <ele>529.343140</ele>
        <time>2009-10-23T19:30:44Z</time>
      </trkpt>
      <trkpt lat="50.605760" lon="6.276740">
        <ele>528.862540</ele>
        <time>2009-10-23T19:30:50Z</time>
      </trkpt>
      <trkpt lat="50.605717" lon="6.276790">
        <ele>528.381830</ele>
        <time>2009-10-23T19:30:52Z</time>
      </trkpt>
      <trkpt lat="50.605677" lon="6.276848">
        <ele>528.381830</ele>
        <time>2009-10-23T19:30:54Z</time>
      </trkpt>
      <trkpt lat="50.605519" lon="6.277085">
        <ele>530.304440</ele>
        <time>2009-10-23T19:31:03Z</time>
      </trkpt>
      <trkpt lat="50.605405" lon="6.277289">
        <ele>526.939810</ele>
        <time>2009-10-23T19:31:10Z</time>
      </trkpt>
      <trkpt lat="50.605292" lon="6.277542">
        <ele>529.343140</ele>
        <time>2009-10-23T19:31:18Z</time>
      </trkpt>
      <trkpt lat="50.605254" lon="6.277700">
        <ele>530.304440</ele>
        <time>2009-10-23T19:31:22Z</time>
      </trkpt>
      <trkpt lat="50.605179" lon="6.277993">
        <ele>528.381830</ele>
        <time>2009-10-23T19:31:30Z</time>
      </trkpt>
      <trkpt lat="50.605150" lon="6.278205">
        <ele>529.823730</ele>
        <time>2009-10-23T19:31:35Z</time>
      </trkpt>
      <trkpt lat="50.605141" lon="6.278421">
        <ele>530.785150</ele>
        <time>2009-10-23T19:31:41Z</time>
      </trkpt>
      <trkpt lat="50.605144" lon="6.278740">
        <ele>533.668940</ele>
        <time>2009-10-23T19:31:49Z</time>
      </trkpt>
      <trkpt lat="50.605143" lon="6.278757">
        <ele>534.149650</ele>
        <time>2009-10-23T19:31:49Z</time>
      </trkpt>
      <trkpt lat="50.605126" lon="6.279095">
        <ele>535.591550</ele>
        <time>2009-10-23T19:31:58Z</time>
      </trkpt>
      <trkpt lat="50.605108" lon="6.279174">
        <ele>535.591550</ele>
        <time>2009-10-23T19:32:00Z</time>
      </trkpt>
      <trkpt lat="50.605091" lon="6.279520">
        <ele>534.149650</ele>
        <time>2009-10-23T19:32:09Z</time>
      </trkpt>
      <trkpt lat="50.605101" lon="6.279575">
        <ele>535.110960</ele>
        <time>2009-10-23T19:32:11Z</time>
      </trkpt>
      <trkpt lat="50.605118" lon="6.279747">
        <ele>538.956290</ele>
        <time>2009-10-23T19:32:15Z</time>
      </trkpt>
      <trkpt lat="50.605107" lon="6.279824">
        <ele>539.917600</ele>
        <time>2009-10-23T19:32:17Z</time>
      </trkpt>
      <trkpt lat="50.605115" lon="6.279950">
        <ele>541.359490</ele>
        <time>2009-10-23T19:32:20Z</time>
      </trkpt>
      <trkpt lat="50.605129" lon="6.280048">
        <ele>542.801510</ele>
        <time>2009-10-23T19:32:23Z</time>
      </trkpt>
      <trkpt lat="50.605141" lon="6.280181">
        <ele>539.436890</ele>
        <time>2009-10-23T19:32:26Z</time>
      </trkpt>
      <trkpt lat="50.605179" lon="6.280375">
        <ele>536.553100</ele>
        <time>2009-10-23T19:32:31Z</time>
      </trkpt>
      <trkpt lat="50.605223" lon="6.280595">
        <ele>533.668940</ele>
        <time>2009-10-23T19:32:37Z</time>
      </trkpt>
      <trkpt lat="50.605277" lon="6.280830">
        <ele>534.630370</ele>
        <time>2009-10-23T19:32:43Z</time>
      </trkpt>
      <trkpt lat="50.605323" lon="6.281075">
        <ele>534.630370</ele>
        <time>2009-10-23T19:32:50Z</time>
      </trkpt>
      <trkpt lat="50.605325" lon="6.281118">
        <ele>535.591550</ele>
        <time>2009-10-23T19:32:51Z</time>
      </trkpt>
      <trkpt lat="50.605374" lon="6.281322">
        <ele>541.359490</ele>
        <time>2009-10-23T19:32:57Z</time>
      </trkpt>
      <trkpt lat="50.605392" lon="6.281387">
        <ele>542.320920</ele>
        <time>2009-10-23T19:32:58Z</time>
      </trkpt>
      <trkpt lat="50.605406" lon="6.281444">
        <ele>543.282100</ele>
        <time>2009-10-23T19:33:00Z</time>
      </trkpt>
      <trkpt lat="50.605461" lon="6.281608">
        <ele>546.646850</ele>
        <time>2009-10-23T19:33:05Z</time>
      </trkpt>
      <trkpt lat="50.605570" lon="6.281763">
        <ele>551.934080</ele>
        <time>2009-10-23T19:33:11Z</time>
      </trkpt>
      <trkpt lat="50.605567" lon="6.281825">
        <ele>548.088860</ele>
        <time>2009-10-23T19:33:12Z</time>
      </trkpt>
      <trkpt lat="50.605613" lon="6.282002">
        <ele>539.917600</ele>
        <time>2009-10-23T19:33:17Z</time>
      </trkpt>
      <trkpt lat="50.605720" lon="6.282068">
        <ele>537.514280</ele>
        <time>2009-10-23T19:33:22Z</time>
      </trkpt>
      <trkpt lat="50.605744" lon="6.282034">
        <ele>537.514280</ele>
        <time>2009-10-23T19:33:23Z</time>
      </trkpt>
      <trkpt lat="50.605863" lon="6.281880">
        <ele>535.591550</ele>
        <time>2009-10-23T19:33:29Z</time>
      </trkpt>
      <trkpt lat="50.605868" lon="6.281853">
        <ele>535.591550</ele>
        <time>2009-10-23T19:33:30Z</time>
      </trkpt>
      <trkpt lat="50.605993" lon="6.281706">
        <ele>534.149650</ele>
        <time>2009-10-23T19:33:36Z</time>
      </trkpt>
      <trkpt lat="50.606129" lon="6.281633">
        <ele>529.343140</ele>
        <time>2009-10-23T19:33:42Z</time>
      </trkpt>
      <trkpt lat="50.606286" lon="6.281565">
        <ele>525.978390</ele>
        <time>2009-10-23T19:33:48Z</time>
      </trkpt>
      <trkpt lat="50.606437" lon="6.281578">
        <ele>527.420410</ele>
        <time>2009-10-23T19:33:54Z</time>
      </trkpt>
      <trkpt lat="50.606515" lon="6.281535">
        <ele>528.381830</ele>
        <time>2009-10-23T19:33:58Z</time>
      </trkpt>
      <trkpt lat="50.606524" lon="6.281529">
        <ele>529.343140</ele>
        <time>2009-10-23T19:33:58Z</time>
      </trkpt>
      <trkpt lat="50.606550" lon="6.281414">
        <ele>529.343140</ele>
        <time>2009-10-23T19:34:01Z</time>
      </trkpt>
      <trkpt lat="50.606547" lon="6.281426">
        <ele>529.343140</ele>
        <time>2009-10-23T19:34:01Z</time>
      </trkpt>
      <trkpt lat="50.606594" lon="6.281529">
        <ele>529.343140</ele>
        <time>2009-10-23T19:34:05Z</time>
      </trkpt>
      <trkpt lat="50.606620" lon="6.281469">
        <ele>530.785150</ele>
        <time>2009-10-23T19:34:07Z</time>
      </trkpt>
      <trkpt lat="50.606634" lon="6.281455">
        <ele>530.785150</ele>
        <time>2009-10-23T19:34:07Z</time>
      </trkpt>
      <trkpt lat="50.606765" lon="6.281335">
        <ele>529.343140</ele>
        <time>2009-10-23T19:34:13Z</time>
      </trkpt>
      <trkpt lat="50.606909" lon="6.281175">
        <ele>529.343140</ele>
        <time>2009-10-23T19:34:20Z</time>
      </trkpt>
      <trkpt lat="50.606982" lon="6.281036">
        <ele>527.420410</ele>
        <time>2009-10-23T19:34:25Z</time>
      </trkpt>
      <trkpt lat="50.607092" lon="6.280863">
        <ele>527.420410</ele>
        <time>2009-10-23T19:34:31Z</time>
      </trkpt>
      <trkpt lat="50.607177" lon="6.280716">
        <ele>525.017210</ele>
        <time>2009-10-23T19:34:36Z</time>
      </trkpt>
      <trkpt lat="50.607299" lon="6.280538">
        <ele>525.497800</ele>
        <time>2009-10-23T19:34:43Z</time>
      </trkpt>
      <trkpt lat="50.607431" lon="6.280307">
        <ele>524.536490</ele>
        <time>2009-10-23T19:34:51Z</time>
      </trkpt>
      <trkpt lat="50.607578" lon="6.280047">
        <ele>524.055780</ele>
        <time>2009-10-23T19:35:00Z</time>
      </trkpt>
      <trkpt lat="50.607639" lon="6.279817">
        <ele>522.133170</ele>
        <time>2009-10-23T19:35:06Z</time>
      </trkpt>
      <trkpt lat="50.607750" lon="6.279576">
        <ele>520.691280</ele>
        <time>2009-10-23T19:35:13Z</time>
      </trkpt>
      <trkpt lat="50.607814" lon="6.279323">
        <ele>518.768550</ele>
        <time>2009-10-23T19:35:20Z</time>
      </trkpt>
      <trkpt lat="50.607866" lon="6.279115">
        <ele>519.249260</ele>
        <time>2009-10-23T19:35:26Z</time>
      </trkpt>
      <trkpt lat="50.607923" lon="6.278900">
        <ele>522.133170</ele>
        <time>2009-10-23T19:35:32Z</time>
      </trkpt>
      <trkpt lat="50.607918" lon="6.278782">
        <ele>523.575190</ele>
        <time>2009-10-23T19:35:35Z</time>
      </trkpt>
      <trkpt lat="50.607939" lon="6.278686">
        <ele>524.536490</ele>
        <time>2009-10-23T19:35:38Z</time>
      </trkpt>
      <trkpt lat="50.607936" lon="6.278663">
        <ele>525.017210</ele>
        <time>2009-10-23T19:35:38Z</time>
      </trkpt>
      <trkpt lat="50.607987" lon="6.278423">
        <ele>527.901000</ele>
        <time>2009-10-23T19:35:45Z</time>
      </trkpt>
      <trkpt lat="50.607985" lon="6.278364">
        <ele>527.420410</ele>
        <time>2009-10-23T19:35:46Z</time>
      </trkpt>
      <trkpt lat="50.608102" lon="6.278101">
        <ele>527.420410</ele>
        <time>2009-10-23T19:35:54Z</time>
      </trkpt>
      <trkpt lat="50.608144" lon="6.278000">
        <ele>527.901000</ele>
        <time>2009-10-23T19:35:57Z</time>
      </trkpt>
      <trkpt lat="50.608179" lon="6.277806">
        <ele>529.343140</ele>
        <time>2009-10-23T19:36:02Z</time>
      </trkpt>
      <trkpt lat="50.608234" lon="6.277567">
        <ele>529.823730</ele>
        <time>2009-10-23T19:36:09Z</time>
      </trkpt>
      <trkpt lat="50.608191" lon="6.277390">
        <ele>525.978390</ele>
        <time>2009-10-23T19:36:14Z</time>
      </trkpt>
      <trkpt lat="50.608294" lon="6.277152">
        <ele>519.729850</ele>
        <time>2009-10-23T19:36:21Z</time>
      </trkpt>
      <trkpt lat="50.608359" lon="6.276896">
        <ele>519.729850</ele>
        <time>2009-10-23T19:36:28Z</time>
      </trkpt>
      <trkpt lat="50.608370" lon="6.276842">
        <ele>518.287840</ele>
        <time>2009-10-23T19:36:29Z</time>
      </trkpt>
      <trkpt lat="50.608460" lon="6.276591">
        <ele>512.039420</ele>
        <time>2009-10-23T19:36:37Z</time>
      </trkpt>
      <trkpt lat="50.608549" lon="6.276305">
        <ele>512.520020</ele>
        <time>2009-10-23T19:36:45Z</time>
      </trkpt>
      <trkpt lat="50.608668" lon="6.276072">
        <ele>510.597290</ele>
        <time>2009-10-23T19:36:52Z</time>
      </trkpt>
      <trkpt lat="50.608821" lon="6.275919">
        <ele>509.155390</ele>
        <time>2009-10-23T19:37:00Z</time>
      </trkpt>
      <trkpt lat="50.608854" lon="6.275916">
        <ele>510.116690</ele>
        <time>2009-10-23T19:37:01Z</time>
      </trkpt>
      <trkpt lat="50.608870" lon="6.275923">
        <ele>510.116690</ele>
        <time>2009-10-23T19:37:02Z</time>
      </trkpt>
      <trkpt lat="50.608929" lon="6.275845">
        <ele>510.116690</ele>
        <time>2009-10-23T19:37:05Z</time>
      </trkpt>
      <trkpt lat="50.608936" lon="6.275791">
        <ele>510.116690</ele>
        <time>2009-10-23T19:37:06Z</time>
      </trkpt>
      <trkpt lat="50.608908" lon="6.275831">
        <ele>510.597290</ele>
        <time>2009-10-23T19:37:08Z</time>
      </trkpt>
      <trkpt lat="50.608993" lon="6.275801">
        <ele>509.636100</ele>
        <time>2009-10-23T19:37:11Z</time>
      </trkpt>
      <trkpt lat="50.609120" lon="6.275702">
        <ele>511.558710</ele>
        <time>2009-10-23T19:37:17Z</time>
      </trkpt>
      <trkpt lat="50.609242" lon="6.275601">
        <ele>509.636100</ele>
        <time>2009-10-23T19:37:22Z</time>
      </trkpt>
      <trkpt lat="50.609377" lon="6.275511">
        <ele>510.116690</ele>
        <time>2009-10-23T19:37:28Z</time>
      </trkpt>
      <trkpt lat="50.609484" lon="6.275422">
        <ele>508.194090</ele>
        <time>2009-10-23T19:37:33Z</time>
      </trkpt>
      <trkpt lat="50.609643" lon="6.275309">
        <ele>509.155390</ele>
        <time>2009-10-23T19:37:40Z</time>
      </trkpt>
      <trkpt lat="50.609715" lon="6.275239">
        <ele>510.116690</ele>
        <time>2009-10-23T19:37:43Z</time>
      </trkpt>
      <trkpt lat="50.609867" lon="6.275147">
        <ele>511.078000</ele>
        <time>2009-10-23T19:37:50Z</time>
      </trkpt>
      <trkpt lat="50.609941" lon="6.275096">
        <ele>511.078000</ele>
        <time>2009-10-23T19:37:53Z</time>
      </trkpt>
      <trkpt lat="50.609967" lon="6.275062">
        <ele>511.078000</ele>
        <time>2009-10-23T19:37:55Z</time>
      </trkpt>
      <trkpt lat="50.610136" lon="6.274951">
        <ele>511.078000</ele>
        <time>2009-10-23T19:38:02Z</time>
      </trkpt>
      <trkpt lat="50.610258" lon="6.275072">
        <ele>510.116690</ele>
        <time>2009-10-23T19:38:08Z</time>
      </trkpt>
      <trkpt lat="50.610270" lon="6.275094">
        <ele>510.597290</ele>
        <time>2009-10-23T19:38:08Z</time>
      </trkpt>
      <trkpt lat="50.610354" lon="6.275336">
        <ele>513.000730</ele>
        <time>2009-10-23T19:38:15Z</time>
      </trkpt>
      <trkpt lat="50.610400" lon="6.275469">
        <ele>513.962030</ele>
        <time>2009-10-23T19:38:19Z</time>
      </trkpt>
      <trkpt lat="50.610416" lon="6.275573">
        <ele>516.365230</ele>
        <time>2009-10-23T19:38:22Z</time>
      </trkpt>
      <trkpt lat="50.610442" lon="6.275664">
        <ele>517.326660</ele>
        <time>2009-10-23T19:38:25Z</time>
      </trkpt>
      <trkpt lat="50.610480" lon="6.275814">
        <ele>518.768550</ele>
        <time>2009-10-23T19:38:29Z</time>
      </trkpt>
      <trkpt lat="50.610513" lon="6.275924">
        <ele>518.768550</ele>
        <time>2009-10-23T19:38:32Z</time>
      </trkpt>
      <trkpt lat="50.610617" lon="6.276211">
        <ele>516.845940</ele>
        <time>2009-10-23T19:38:40Z</time>
      </trkpt>
      <trkpt lat="50.610687" lon="6.276412">
        <ele>513.962030</ele>
        <time>2009-10-23T19:38:46Z</time>
      </trkpt>
      <trkpt lat="50.610704" lon="6.276496">
        <ele>514.442620</ele>
        <time>2009-10-23T19:38:48Z</time>
      </trkpt>
      <trkpt lat="50.610761" lon="6.276684">
        <ele>512.520020</ele>
        <time>2009-10-23T19:38:53Z</time>
      </trkpt>
      <trkpt lat="50.610817" lon="6.276899">
        <ele>510.597290</ele>
        <time>2009-10-23T19:38:59Z</time>
      </trkpt>
      <trkpt lat="50.610954" lon="6.277271">
        <ele>509.636100</ele>
        <time>2009-10-23T19:39:10Z</time>
      </trkpt>
      <trkpt lat="50.610971" lon="6.277306">
        <ele>509.636100</ele>
        <time>2009-10-23T19:39:11Z</time>
      </trkpt>
      <trkpt lat="50.611042" lon="6.277393">
        <ele>509.155390</ele>
        <time>2009-10-23T19:39:15Z</time>
      </trkpt>
      <trkpt lat="50.611132" lon="6.277775">
        <ele>509.636100</ele>
        <time>2009-10-23T19:39:25Z</time>
      </trkpt>
      <trkpt lat="50.611206" lon="6.278045">
        <ele>513.000730</ele>
        <time>2009-10-23T19:39:33Z</time>
      </trkpt>
      <trkpt lat="50.611279" lon="6.278255">
        <ele>515.404050</ele>
        <time>2009-10-23T19:39:39Z</time>
      </trkpt>
      <trkpt lat="50.611399" lon="6.278492">
        <ele>514.923340</ele>
        <time>2009-10-23T19:39:47Z</time>
      </trkpt>
      <trkpt lat="50.611451" lon="6.278774">
        <ele>515.404050</ele>
        <time>2009-10-23T19:39:54Z</time>
      </trkpt>
      <trkpt lat="50.611630" lon="6.279201">
        <ele>515.884640</ele>
        <time>2009-10-23T19:40:07Z</time>
      </trkpt>
      <trkpt lat="50.611797" lon="6.279372">
        <ele>514.442620</ele>
        <time>2009-10-23T19:40:15Z</time>
      </trkpt>
      <trkpt lat="50.611894" lon="6.279547">
        <ele>513.481440</ele>
        <time>2009-10-23T19:40:21Z</time>
      </trkpt>
      <trkpt lat="50.612028" lon="6.279858">
        <ele>512.520020</ele>
        <time>2009-10-23T19:40:31Z</time>
      </trkpt>
      <trkpt lat="50.612037" lon="6.279884">
        <ele>512.520020</ele>
        <time>2009-10-23T19:40:31Z</time>
      </trkpt>
      <trkpt lat="50.612129" lon="6.280234">
        <ele>513.000730</ele>
        <time>2009-10-23T19:40:41Z</time>
      </trkpt>
      <trkpt lat="50.612206" lon="6.280445">
        <ele>513.481440</ele>
        <time>2009-10-23T19:40:47Z</time>
      </trkpt>
      <trkpt lat="50.612292" lon="6.280843">
        <ele>513.962030</ele>
        <time>2009-10-23T19:40:58Z</time>
      </trkpt>
      <trkpt lat="50.612292" lon="6.280882">
        <ele>514.923340</ele>
        <time>2009-10-23T19:40:59Z</time>
      </trkpt>
      <trkpt lat="50.612312" lon="6.281189">
        <ele>517.326660</ele>
        <time>2009-10-23T19:41:07Z</time>
      </trkpt>
      <trkpt lat="50.612381" lon="6.281324">
        <ele>518.287840</ele>
        <time>2009-10-23T19:41:11Z</time>
      </trkpt>
      <trkpt lat="50.612557" lon="6.281668">
        <ele>520.691280</ele>
        <time>2009-10-23T19:41:22Z</time>
      </trkpt>
      <trkpt lat="50.612676" lon="6.281998">
        <ele>520.210570</ele>
        <time>2009-10-23T19:41:32Z</time>
      </trkpt>
      <trkpt lat="50.612793" lon="6.282336">
        <ele>519.729850</ele>
        <time>2009-10-23T19:41:42Z</time>
      </trkpt>
      <trkpt lat="50.612835" lon="6.282480">
        <ele>518.287840</ele>
        <time>2009-10-23T19:41:46Z</time>
      </trkpt>
      <trkpt lat="50.612929" lon="6.283035">
        <ele>517.326660</ele>
        <time>2009-10-23T19:42:00Z</time>
      </trkpt>
      <trkpt lat="50.612826" lon="6.283528">
        <ele>516.365230</ele>
        <time>2009-10-23T19:42:13Z</time>
      </trkpt>
      <trkpt lat="50.612810" lon="6.283700">
        <ele>516.365230</ele>
        <time>2009-10-23T19:42:18Z</time>
      </trkpt>
      <trkpt lat="50.612765" lon="6.284039">
        <ele>516.365230</ele>
        <time>2009-10-23T19:42:27Z</time>
      </trkpt>
      <trkpt lat="50.612764" lon="6.284076">
        <ele>516.845940</ele>
        <time>2009-10-23T19:42:28Z</time>
      </trkpt>
      <trkpt lat="50.612758" lon="6.284120">
        <ele>516.845940</ele>
        <time>2009-10-23T19:42:29Z</time>
      </trkpt>
      <trkpt lat="50.612737" lon="6.284352">
        <ele>516.365230</ele>
        <time>2009-10-23T19:42:35Z</time>
      </trkpt>
      <trkpt lat="50.612723" lon="6.284583">
        <ele>514.923340</ele>
        <time>2009-10-23T19:42:41Z</time>
      </trkpt>
      <trkpt lat="50.612729" lon="6.284666">
        <ele>512.520020</ele>
        <time>2009-10-23T19:42:43Z</time>
      </trkpt>
      <trkpt lat="50.612743" lon="6.284827">
        <ele>512.520020</ele>
        <time>2009-10-23T19:42:47Z</time>
      </trkpt>
      <trkpt lat="50.612826" lon="6.285098">
        <ele>514.923340</ele>
        <time>2009-10-23T19:42:54Z</time>
      </trkpt>
      <trkpt lat="50.612896" lon="6.285344">
        <ele>514.923340</ele>
        <time>2009-10-23T19:43:01Z</time>
      </trkpt>
      <trkpt lat="50.612874" lon="6.285587">
        <ele>514.442620</ele>
        <time>2009-10-23T19:43:08Z</time>
      </trkpt>
      <trkpt lat="50.612872" lon="6.285624">
        <ele>514.442620</ele>
        <time>2009-10-23T19:43:08Z</time>
      </trkpt>
      <trkpt lat="50.612887" lon="6.285913">
        <ele>517.807250</ele>
        <time>2009-10-23T19:43:16Z</time>
      </trkpt>
      <trkpt lat="50.612920" lon="6.286095">
        <ele>511.078000</ele>
        <time>2009-10-23T19:43:21Z</time>
      </trkpt>
      <trkpt lat="50.612993" lon="6.286283">
        <ele>510.116690</ele>
        <time>2009-10-23T19:43:26Z</time>
      </trkpt>
      <trkpt lat="50.612995" lon="6.286329">
        <ele>510.597290</ele>
        <time>2009-10-23T19:43:27Z</time>
      </trkpt>
      <trkpt lat="50.613035" lon="6.286422">
        <ele>511.558710</ele>
        <time>2009-10-23T19:43:30Z</time>
      </trkpt>
      <trkpt lat="50.613026" lon="6.286592">
        <ele>512.039420</ele>
        <time>2009-10-23T19:43:35Z</time>
      </trkpt>
      <trkpt lat="50.613023" lon="6.286608">
        <ele>511.558710</ele>
        <time>2009-10-23T19:43:35Z</time>
      </trkpt>
      <trkpt lat="50.612991" lon="6.286617">
        <ele>510.597290</ele>
        <time>2009-10-23T19:43:36Z</time>
      </trkpt>
      <trkpt lat="50.612974" lon="6.286642">
        <ele>509.636100</ele>
        <time>2009-10-23T19:43:37Z</time>
      </trkpt>
      <trkpt lat="50.612943" lon="6.286623">
        <ele>508.674680</ele>
        <time>2009-10-23T19:43:39Z</time>
      </trkpt>
      <trkpt lat="50.612832" lon="6.286661">
        <ele>509.636100</ele>
        <time>2009-10-23T19:43:43Z</time>
      </trkpt>
      <trkpt lat="50.612746" lon="6.286693">
        <ele>509.155390</ele>
        <time>2009-10-23T19:43:47Z</time>
      </trkpt>
      <trkpt lat="50.612696" lon="6.286658">
        <ele>509.155390</ele>
        <time>2009-10-23T19:43:49Z</time>
      </trkpt>
      <trkpt lat="50.612654" lon="6.286451">
        <ele>507.232780</ele>
        <time>2009-10-23T19:43:54Z</time>
      </trkpt>
      <trkpt lat="50.612644" lon="6.286459">
        <ele>506.752070</ele>
        <time>2009-10-23T19:43:55Z</time>
      </trkpt>
      <trkpt lat="50.612479" lon="6.286492">
        <ele>506.752070</ele>
        <time>2009-10-23T19:44:02Z</time>
      </trkpt>
      <trkpt lat="50.612497" lon="6.286461">
        <ele>506.271480</ele>
        <time>2009-10-23T19:44:03Z</time>
      </trkpt>
      <trkpt lat="50.612384" lon="6.286491">
        <ele>505.310180</ele>
        <time>2009-10-23T19:44:07Z</time>
      </trkpt>
      <trkpt lat="50.612325" lon="6.286382">
        <ele>505.310180</ele>
        <time>2009-10-23T19:44:11Z</time>
      </trkpt>
      <trkpt lat="50.612295" lon="6.286298">
        <ele>505.790890</ele>
        <time>2009-10-23T19:44:13Z</time>
      </trkpt>
      <trkpt lat="50.612173" lon="6.286084">
        <ele>506.271480</ele>
        <time>2009-10-23T19:44:21Z</time>
      </trkpt>
      <trkpt lat="50.612095" lon="6.286020">
        <ele>505.310180</ele>
        <time>2009-10-23T19:44:24Z</time>
      </trkpt>
      <trkpt lat="50.612088" lon="6.286000">
        <ele>505.310180</ele>
        <time>2009-10-23T19:44:25Z</time>
      </trkpt>
      <trkpt lat="50.612079" lon="6.285971">
        <ele>504.829460</ele>
        <time>2009-10-23T19:44:25Z</time>
      </trkpt>
      <trkpt lat="50.612024" lon="6.285857">
        <ele>506.271480</ele>
        <time>2009-10-23T19:44:29Z</time>
      </trkpt>
      <trkpt lat="50.611959" lon="6.285697">
        <ele>508.674680</ele>
        <time>2009-10-23T19:44:34Z</time>
      </trkpt>
      <trkpt lat="50.611866" lon="6.285540">
        <ele>509.155390</ele>
        <time>2009-10-23T19:44:39Z</time>
      </trkpt>
      <trkpt lat="50.611808" lon="6.285409">
        <ele>510.116690</ele>
        <time>2009-10-23T19:44:43Z</time>
      </trkpt>
      <trkpt lat="50.611736" lon="6.285299">
        <ele>510.597290</ele>
        <time>2009-10-23T19:44:47Z</time>
      </trkpt>
      <trkpt lat="50.611680" lon="6.285180">
        <ele>510.116690</ele>
        <time>2009-10-23T19:44:51Z</time>
      </trkpt>
      <trkpt lat="50.611628" lon="6.284960">
        <ele>510.116690</ele>
        <time>2009-10-23T19:44:57Z</time>
      </trkpt>
      <trkpt lat="50.611567" lon="6.284725">
        <ele>510.597290</ele>
        <time>2009-10-23T19:45:04Z</time>
      </trkpt>
      <trkpt lat="50.611515" lon="6.284579">
        <ele>509.636100</ele>
        <time>2009-10-23T19:45:08Z</time>
      </trkpt>
      <trkpt lat="50.611465" lon="6.284410">
        <ele>508.194090</ele>
        <time>2009-10-23T19:45:13Z</time>
      </trkpt>
      <trkpt lat="50.611439" lon="6.284308">
        <ele>508.674680</ele>
        <time>2009-10-23T19:45:15Z</time>
      </trkpt>
      <trkpt lat="50.611393" lon="6.284377">
        <ele>509.155390</ele>
        <time>2009-10-23T19:45:18Z</time>
      </trkpt>
      <trkpt lat="50.611426" lon="6.284250">
        <ele>509.155390</ele>
        <time>2009-10-23T19:45:21Z</time>
      </trkpt>
      <trkpt lat="50.611328" lon="6.283892">
        <ele>510.597290</ele>
        <time>2009-10-23T19:45:31Z</time>
      </trkpt>
      <trkpt lat="50.611279" lon="6.283555">
        <ele>514.923340</ele>
        <time>2009-10-23T19:45:40Z</time>
      </trkpt>
      <trkpt lat="50.611228" lon="6.283530">
        <ele>515.404050</ele>
        <time>2009-10-23T19:45:42Z</time>
      </trkpt>
      <trkpt lat="50.611020" lon="6.283399">
        <ele>513.000730</ele>
        <time>2009-10-23T19:45:51Z</time>
      </trkpt>
      <trkpt lat="50.610775" lon="6.283267">
        <ele>512.520020</ele>
        <time>2009-10-23T19:46:02Z</time>
      </trkpt>
      <trkpt lat="50.610580" lon="6.283180">
        <ele>514.442620</ele>
        <time>2009-10-23T19:46:10Z</time>
      </trkpt>
      <trkpt lat="50.610430" lon="6.283139">
        <ele>517.807250</ele>
        <time>2009-10-23T19:46:16Z</time>
      </trkpt>
      <trkpt lat="50.610346" lon="6.283091">
        <ele>517.326660</ele>
        <time>2009-10-23T19:46:19Z</time>
      </trkpt>
      <trkpt lat="50.610319" lon="6.283091">
        <ele>517.326660</ele>
        <time>2009-10-23T19:46:20Z</time>
      </trkpt>
      <trkpt lat="50.610014" lon="6.283027">
        <ele>520.210570</ele>
        <time>2009-10-23T19:46:33Z</time>
      </trkpt>
      <trkpt lat="50.609910" lon="6.283098">
        <ele>520.210570</ele>
        <time>2009-10-23T19:46:37Z</time>
      </trkpt>
      <trkpt lat="50.609863" lon="6.283139">
        <ele>520.210570</ele>
        <time>2009-10-23T19:46:39Z</time>
      </trkpt>
      <trkpt lat="50.609825" lon="6.283156">
        <ele>520.210570</ele>
        <time>2009-10-23T19:46:41Z</time>
      </trkpt>
      <trkpt lat="50.609715" lon="6.283261">
        <ele>521.652580</ele>
        <time>2009-10-23T19:46:46Z</time>
      </trkpt>
      <trkpt lat="50.609577" lon="6.283392">
        <ele>521.652580</ele>
        <time>2009-10-23T19:46:53Z</time>
      </trkpt>
      <trkpt lat="50.609530" lon="6.283438">
        <ele>520.691280</ele>
        <time>2009-10-23T19:46:55Z</time>
      </trkpt>
      <trkpt lat="50.609363" lon="6.283574">
        <ele>525.017210</ele>
        <time>2009-10-23T19:47:02Z</time>
      </trkpt>
      <trkpt lat="50.609254" lon="6.283687">
        <ele>523.575190</ele>
        <time>2009-10-23T19:47:08Z</time>
      </trkpt>
      <trkpt lat="50.609165" lon="6.283798">
        <ele>524.055780</ele>
        <time>2009-10-23T19:47:12Z</time>
      </trkpt>
      <trkpt lat="50.609046" lon="6.283947">
        <ele>523.575190</ele>
        <time>2009-10-23T19:47:18Z</time>
      </trkpt>
      <trkpt lat="50.608920" lon="6.283993">
        <ele>523.575190</ele>
        <time>2009-10-23T19:47:23Z</time>
      </trkpt>
      <trkpt lat="50.608899" lon="6.284010">
        <ele>523.575190</ele>
        <time>2009-10-23T19:47:24Z</time>
      </trkpt>
      <trkpt lat="50.608725" lon="6.284150">
        <ele>523.575190</ele>
        <time>2009-10-23T19:47:32Z</time>
      </trkpt>
      <trkpt lat="50.608627" lon="6.284258">
        <ele>524.536490</ele>
        <time>2009-10-23T19:47:37Z</time>
      </trkpt>
      <trkpt lat="50.608411" lon="6.284471">
        <ele>525.017210</ele>
        <time>2009-10-23T19:47:47Z</time>
      </trkpt>
      <trkpt lat="50.608251" lon="6.284690">
        <ele>525.497800</ele>
        <time>2009-10-23T19:47:56Z</time>
      </trkpt>
      <trkpt lat="50.608017" lon="6.284793">
        <ele>525.497800</ele>
        <time>2009-10-23T19:48:05Z</time>
      </trkpt>
      <trkpt lat="50.607884" lon="6.284959">
        <ele>526.459100</ele>
        <time>2009-10-23T19:48:12Z</time>
      </trkpt>
      <trkpt lat="50.607799" lon="6.284897">
        <ele>526.939810</ele>
        <time>2009-10-23T19:48:16Z</time>
      </trkpt>
      <trkpt lat="50.607775" lon="6.284872">
        <ele>526.939810</ele>
        <time>2009-10-23T19:48:17Z</time>
      </trkpt>
      <trkpt lat="50.607640" lon="6.284746">
        <ele>529.343140</ele>
        <time>2009-10-23T19:48:23Z</time>
      </trkpt>
      <trkpt lat="50.607566" lon="6.284626">
        <ele>529.823730</ele>
        <time>2009-10-23T19:48:28Z</time>
      </trkpt>
      <trkpt lat="50.607417" lon="6.284601">
        <ele>527.901000</ele>
        <time>2009-10-23T19:48:34Z</time>
      </trkpt>
      <trkpt lat="50.607297" lon="6.284473">
        <ele>528.862540</ele>
        <time>2009-10-23T19:48:39Z</time>
      </trkpt>
      <trkpt lat="50.607232" lon="6.284431">
        <ele>530.304440</ele>
        <time>2009-10-23T19:48:42Z</time>
      </trkpt>
      <trkpt lat="50.607205" lon="6.284405">
        <ele>530.304440</ele>
        <time>2009-10-23T19:48:44Z</time>
      </trkpt>
      <trkpt lat="50.607060" lon="6.284309">
        <ele>532.707760</ele>
        <time>2009-10-23T19:48:50Z</time>
      </trkpt>
      <trkpt lat="50.607004" lon="6.284269">
        <ele>531.746330</ele>
        <time>2009-10-23T19:48:52Z</time>
      </trkpt>
      <trkpt lat="50.607015" lon="6.284242">
        <ele>532.227050</ele>
        <time>2009-10-23T19:48:53Z</time>
      </trkpt>
      <trkpt lat="50.606986" lon="6.284390">
        <ele>531.746330</ele>
        <time>2009-10-23T19:48:57Z</time>
      </trkpt>
      <trkpt lat="50.606992" lon="6.284430">
        <ele>531.746330</ele>
        <time>2009-10-23T19:48:58Z</time>
      </trkpt>
      <trkpt lat="50.607019" lon="6.284689">
        <ele>532.707760</ele>
        <time>2009-10-23T19:49:05Z</time>
      </trkpt>
      <trkpt lat="50.607071" lon="6.284983">
        <ele>531.746330</ele>
        <time>2009-10-23T19:49:12Z</time>
      </trkpt>
      <trkpt lat="50.607113" lon="6.285289">
        <ele>534.149650</ele>
        <time>2009-10-23T19:49:20Z</time>
      </trkpt>
      <trkpt lat="50.607144" lon="6.285467">
        <ele>532.707760</ele>
        <time>2009-10-23T19:49:25Z</time>
      </trkpt>
      <trkpt lat="50.607192" lon="6.285730">
        <ele>533.188350</ele>
        <time>2009-10-23T19:49:32Z</time>
      </trkpt>
      <trkpt lat="50.607271" lon="6.285990">
        <ele>534.630370</ele>
        <time>2009-10-23T19:49:39Z</time>
      </trkpt>
      <trkpt lat="50.607355" lon="6.286249">
        <ele>534.149650</ele>
        <time>2009-10-23T19:49:47Z</time>
      </trkpt>
      <trkpt lat="50.607446" lon="6.286529">
        <ele>533.188350</ele>
        <time>2009-10-23T19:49:55Z</time>
      </trkpt>
      <trkpt lat="50.607472" lon="6.286607">
        <ele>533.188350</ele>
        <time>2009-10-23T19:49:57Z</time>
      </trkpt>
      <trkpt lat="50.607494" lon="6.286656">
        <ele>532.227050</ele>
        <time>2009-10-23T19:49:59Z</time>
      </trkpt>
      <trkpt lat="50.607526" lon="6.286753">
        <ele>532.227050</ele>
        <time>2009-10-23T19:50:01Z</time>
      </trkpt>
      <trkpt lat="50.607540" lon="6.286779">
        <ele>532.707760</ele>
        <time>2009-10-23T19:50:02Z</time>
      </trkpt>
      <trkpt lat="50.607563" lon="6.286873">
        <ele>533.668940</ele>
        <time>2009-10-23T19:50:05Z</time>
      </trkpt>
      <trkpt lat="50.607650" lon="6.287145">
        <ele>535.591550</ele>
        <time>2009-10-23T19:50:12Z</time>
      </trkpt>
      <trkpt lat="50.607730" lon="6.287374">
        <ele>536.072380</ele>
        <time>2009-10-23T19:50:19Z</time>
      </trkpt>
      <trkpt lat="50.607776" lon="6.287532">
        <ele>537.033690</ele>
        <time>2009-10-23T19:50:24Z</time>
      </trkpt>
    </trkseg>
  </trk>

</gpx>
